Duke Field AFS, FL

9:58 AM CDT on August 29, 2015 (GMT -0500)
John King 2nd edition | | Change Station
CLOSE
Current Station
Personal Weather Station
Location: Crestview, FL
Elevation: 138 ft
Nearby Weather Stations

Elev 138 ft 30.72 °N, 86.55 °W | Updated 3 minutes ago

Mostly Cloudy
Mostly Cloudy
75.9 °F
Feels Like 76 °F
N
2.2
Wind Variable Wind from SSE

Today
High -- | Low -- °F
--% Chance of Precip.
Yesterday
High -- | Low -- °F
Precip. -- in
6:20 AM 7:12 PM
Full, 100% visible
Pressure 30.14 in
Visibility 2.0 miles
Clouds Few 1300 ft
Mostly Cloudy 3600 ft
Overcast 11000 ft
Heat Index 76 °F
Dew Point 72 °F
Humidity 87%
Rainfall 0.00 in
Snow Depth Not available.
UV 2 out of 12
Pollen 6.90 out of 12
Air Quality Not available.
Flu Activity Not available.
METAR KCEW 291453Z AUTO 00000KT 2SM +RA BR FEW013 BKN036 OVC110 23/22 A3014 RMK AO2 RAB38 SLP204 P0000 60000 T02330222 51006
Pressure 30.14 in
Visibility 2.0 miles
Clouds Few 1300 ft
Mostly Cloudy 3600 ft
Overcast 11000 ft
Heat Index 76 °F
Dew Point 72 °F
Humidity 87%
Rainfall 0.00 in
Snow Depth Not available.
UV 2 out of 12
Pollen 6.90 out of 12
Air Quality Not available.
Flu Activity Not available.
METAR KCEW 291453Z AUTO 00000KT 2SM +RA BR FEW013 BKN036 OVC110 23/22 A3014 RMK AO2 RAB38 SLP204 P0000 60000 T02330222 51006

10-Day Weather Forecast

×

Almanac

Astronomy

Aug. 29, 2015 Rise Set
Actual Time
Civil Twilight
Nautical Twilight
Astronomical Twilight
Moon
Length of Visible Light
Length of Day
Tomorrow will be .
, % of the Moon is Illuminated

Today's Extremes

State Highs State Lows

Community

WunderPhotos

Upload Photos

1,850,707 photos uploaded!

WunderBlogs® & News

Nearby

Air Quality

  Air Quality AQ Index Pollutant
Not available.

Snow Depth

Station Depth Elevation

Earthquake Activity

City Distance Mag. Time & Date
Minimum magnitude displayed is 2.5.

Coastal Water Temperatures

Place Temperature

Stations

Nearby Weather Stations

Station Location Temp. Windchill Dew Point Humidity Wind Precip. Elev Updated Type